sensor_id;sensor_type;location;lat;lon;timestamp;P1;durP1;ratioP1;P2;durP2;ratioP2
162;SDS011;3946;48.958;8.284;2023-02-28T00:00:56;22.87;;;7.93;;
162;SDS011;3946;48.958;8.284;2023-02-28T00:03:42;26.50;;;8.80;;
162;SDS011;3946;48.958;8.284;2023-02-28T00:06:30;37.00;;;11.97;;
162;SDS011;3946;48.958;8.284;2023-02-28T00:09:16;29.17;;;8.30;;
162;SDS011;3946;48.958;8.284;2023-02-28T00:12:01;64.87;;;18.07;;
162;SDS011;3946;48.958;8.284;2023-02-28T00:14:53;44.47;;;15.17;;
162;SDS011;3946;48.958;8.284;2023-02-28T00:17:44;64.20;;;18.23;;
162;SDS011;3946;48.958;8.284;2023-02-28T00:20:30;33.60;;;11.40;;
162;SDS011;3946;48.958;8.284;2023-02-28T00:23:16;64.13;;;18.80;;
162;SDS011;3946;48.958;8.284;2023-02-28T00:26:02;47.17;;;15.20;;
162;SDS011;3946;48.958;8.284;2023-02-28T00:28:48;27.10;;;8.70;;
162;SDS011;3946;48.958;8.284;2023-02-28T00:31:36;26.77;;;9.50;;
162;SDS011;3946;48.958;8.284;2023-02-28T00:34:22;18.40;;;6.50;;
162;SDS011;3946;48.958;8.284;2023-02-28T00:37:07;16.00;;;6.60;;
162;SDS011;3946;48.958;8.284;2023-02-28T00:39:56;27.03;;;10.00;;
162;SDS011;3946;48.958;8.284;2023-02-28T00:42:42;15.97;;;6.03;;
162;SDS011;3946;48.958;8.284;2023-02-28T00:45:30;22.97;;;7.83;;
162;SDS011;3946;48.958;8.284;2023-02-28T00:48:21;23.33;;;8.93;;
162;SDS011;3946;48.958;8.284;2023-02-28T00:51:14;17.17;;;6.43;;
162;SDS011;3946;48.958;8.284;2023-02-28T00:54:01;14.20;;;5.87;;
162;SDS011;3946;48.958;8.284;2023-02-28T00:56:49;29.47;;;10.00;;
162;SDS011;3946;48.958;8.284;2023-02-28T00:59:40;20.40;;;7.90;;
162;SDS011;3946;48.958;8.284;2023-02-28T01:02:28;17.33;;;6.60;;
162;SDS011;3946;48.958;8.284;2023-02-28T01:05:14;28.87;;;9.33;;
162;SDS011;3946;48.958;8.284;2023-02-28T01:08:03;34.43;;;10.33;;
162;SDS011;3946;48.958;8.284;2023-02-28T01:10:48;22.97;;;8.60;;
162;SDS011;3946;48.958;8.284;2023-02-28T01:13:35;22.13;;;7.67;;
162;SDS011;3946;48.958;8.284;2023-02-28T01:16:21;15.93;;;6.50;;
162;SDS011;3946;48.958;8.284;2023-02-28T01:19:09;25.77;;;7.60;;
162;SDS011;3946;48.958;8.284;2023-02-28T01:21:56;21.27;;;8.00;;
162;SDS011;3946;48.958;8.284;2023-02-28T01:24:41;20.73;;;7.77;;
162;SDS011;3946;48.958;8.284;2023-02-28T01:27:30;19.67;;;6.40;;
162;SDS011;3946;48.958;8.284;2023-02-28T01:30:17;25.73;;;8.00;;
162;SDS011;3946;48.958;8.284;2023-02-28T01:33:04;35.03;;;11.27;;
162;SDS011;3946;48.958;8.284;2023-02-28T01:35:49;2.00;;;1.30;;
162;SDS011;3946;48.958;8.284;2023-02-28T01:38:42;3.30;;;1.40;;
162;SDS011;3946;48.958;8.284;2023-02-28T01:41:32;1.40;;;1.00;;
162;SDS011;3946;48.958;8.284;2023-02-28T01:47:41;1.40;;;0.90;;
162;SDS011;3946;48.958;8.284;2023-02-28T01:50:29;1.40;;;0.90;;
162;SDS011;3946;48.958;8.284;2023-02-28T01:53:23;20.93;;;5.97;;
162;SDS011;3946;48.958;8.284;2023-02-28T01:56:15;1.50;;;1.00;;
162;SDS011;3946;48.958;8.284;2023-02-28T01:59:07;1.40;;;0.90;;
162;SDS011;3946;48.958;8.284;2023-02-28T02:01:52;1.87;;;1.00;;
162;SDS011;3946;48.958;8.284;2023-02-28T02:04:41;3.20;;;1.47;;
162;SDS011;3946;48.958;8.284;2023-02-28T02:07:35;1.90;;;1.20;;
162;SDS011;3946;48.958;8.284;2023-02-28T02:10:25;13.83;;;5.10;;
162;SDS011;3946;48.958;8.284;2023-02-28T02:13:18;15.40;;;5.80;;
162;SDS011;3946;48.958;8.284;2023-02-28T02:16:17;14.70;;;5.70;;
162;SDS011;3946;48.958;8.284;2023-02-28T02:19:15;16.10;;;6.17;;
162;SDS011;3946;48.958;8.284;2023-02-28T02:22:25;17.10;;;5.90;;
162;SDS011;3946;48.958;8.284;2023-02-28T02:25:32;16.40;;;6.30;;
162;SDS011;3946;48.958;8.284;2023-02-28T02:28:41;15.53;;;5.63;;
162;SDS011;3946;48.958;8.284;2023-02-28T02:35:03;12.97;;;5.67;;
162;SDS011;3946;48.958;8.284;2023-02-28T02:37:58;13.30;;;5.73;;
162;SDS011;3946;48.958;8.284;2023-02-28T02:40:56;13.70;;;5.70;;
162;SDS011;3946;48.958;8.284;2023-02-28T02:43:49;1.40;;;0.90;;
162;SDS011;3946;48.958;8.284;2023-02-28T02:46:40;1.77;;;1.20;;
162;SDS011;3946;48.958;8.284;2023-02-28T02:49:30;1.60;;;1.10;;
162;SDS011;3946;48.958;8.284;2023-02-28T02:52:22;13.10;;;4.90;;
162;SDS011;3946;48.958;8.284;2023-02-28T02:55:10;1.50;;;1.00;;
162;SDS011;3946;48.958;8.284;2023-02-28T02:57:58;3.13;;;2.30;;
162;SDS011;3946;48.958;8.284;2023-02-28T03:00:49;1.40;;;1.00;;
162;SDS011;3946;48.958;8.284;2023-02-28T03:03:38;1.40;;;0.90;;
162;SDS011;3946;48.958;8.284;2023-02-28T03:06:27;12.40;;;5.57;;
162;SDS011;3946;48.958;8.284;2023-02-28T03:09:14;13.33;;;4.90;;
162;SDS011;3946;48.958;8.284;2023-02-28T03:11:59;1.93;;;1.27;;
162;SDS011;3946;48.958;8.284;2023-02-28T03:14:50;2.47;;;1.60;;
162;SDS011;3946;48.958;8.284;2023-02-28T03:18:00;12.63;;;5.50;;
162;SDS011;3946;48.958;8.284;2023-02-28T03:20:50;16.57;;;6.17;;
162;SDS011;3946;48.958;8.284;2023-02-28T03:23:48;14.20;;;6.30;;
162;SDS011;3946;48.958;8.284;2023-02-28T03:26:54;16.10;;;6.23;;
162;SDS011;3946;48.958;8.284;2023-02-28T03:29:45;16.07;;;6.10;;
162;SDS011;3946;48.958;8.284;2023-02-28T03:32:38;14.73;;;6.23;;
162;SDS011;3946;48.958;8.284;2023-02-28T03:35:30;14.90;;;6.30;;
162;SDS011;3946;48.958;8.284;2023-02-28T03:38:21;15.37;;;5.83;;
162;SDS011;3946;48.958;8.284;2023-02-28T03:41:12;16.60;;;6.27;;
162;SDS011;3946;48.958;8.284;2023-02-28T03:44:03;14.63;;;6.00;;
162;SDS011;3946;48.958;8.284;2023-02-28T03:46:54;13.47;;;5.67;;
162;SDS011;3946;48.958;8.284;2023-02-28T03:49:46;18.00;;;6.60;;
162;SDS011;3946;48.958;8.284;2023-02-28T03:52:38;15.70;;;6.00;;
162;SDS011;3946;48.958;8.284;2023-02-28T03:55:32;19.10;;;6.27;;
162;SDS011;3946;48.958;8.284;2023-02-28T03:58:24;14.57;;;6.10;;
162;SDS011;3946;48.958;8.284;2023-02-28T04:01:16;17.77;;;6.40;;
162;SDS011;3946;48.958;8.284;2023-02-28T04:04:07;15.57;;;6.40;;
162;SDS011;3946;48.958;8.284;2023-02-28T04:06:52;15.13;;;6.43;;
162;SDS011;3946;48.958;8.284;2023-02-28T04:09:45;17.60;;;6.60;;
162;SDS011;3946;48.958;8.284;2023-02-28T04:12:33;12.50;;;5.47;;
162;SDS011;3946;48.958;8.284;2023-02-28T04:15:20;15.07;;;6.40;;
162;SDS011;3946;48.958;8.284;2023-02-28T04:18:11;16.00;;;6.63;;
162;SDS011;3946;48.958;8.284;2023-02-28T04:20:59;12.00;;;5.40;;
162;SDS011;3946;48.958;8.284;2023-02-28T04:23:45;18.10;;;6.90;;
162;SDS011;3946;48.958;8.284;2023-02-28T04:26:31;17.53;;;6.63;;
162;SDS011;3946;48.958;8.284;2023-02-28T04:29:19;16.03;;;6.33;;
162;SDS011;3946;48.958;8.284;2023-02-28T04:32:05;1.70;;;1.20;;
162;SDS011;3946;48.958;8.284;2023-02-28T04:34:52;3.00;;;1.63;;
162;SDS011;3946;48.958;8.284;2023-02-28T04:37:37;14.43;;;5.50;;
162;SDS011;3946;48.958;8.284;2023-02-28T04:40:23;15.70;;;6.10;;
162;SDS011;3946;48.958;8.284;2023-02-28T04:43:08;17.00;;;6.23;;
162;SDS011;3946;48.958;8.284;2023-02-28T04:45:53;14.87;;;6.00;;
162;SDS011;3946;48.958;8.284;2023-02-28T04:48:40;22.50;;;7.40;;
162;SDS011;3946;48.958;8.284;2023-02-28T04:51:26;16.43;;;6.73;;
162;SDS011;3946;48.958;8.284;2023-02-28T04:54:12;21.10;;;7.07;;
162;SDS011;3946;48.958;8.284;2023-02-28T04:56:59;19.63;;;6.20;;
162;SDS011;3946;48.958;8.284;2023-02-28T04:59:45;15.97;;;6.40;;
162;SDS011;3946;48.958;8.284;2023-02-28T05:02:30;15.77;;;6.47;;
162;SDS011;3946;48.958;8.284;2023-02-28T05:05:15;16.90;;;6.93;;
162;SDS011;3946;48.958;8.284;2023-02-28T05:08:03;17.00;;;6.70;;
162;SDS011;3946;48.958;8.284;2023-02-28T05:10:48;18.83;;;7.10;;
162;SDS011;3946;48.958;8.284;2023-02-28T05:13:34;19.93;;;6.57;;
162;SDS011;3946;48.958;8.284;2023-02-28T05:16:19;25.80;;;6.90;;
162;SDS011;3946;48.958;8.284;2023-02-28T05:19:04;20.83;;;7.53;;
162;SDS011;3946;48.958;8.284;2023-02-28T05:21:50;20.90;;;7.37;;
162;SDS011;3946;48.958;8.284;2023-02-28T05:24:38;18.47;;;7.50;;
162;SDS011;3946;48.958;8.284;2023-02-28T05:27:24;23.83;;;7.30;;
162;SDS011;3946;48.958;8.284;2023-02-28T05:30:09;18.23;;;7.13;;
162;SDS011;3946;48.958;8.284;2023-02-28T05:32:55;20.90;;;7.23;;
162;SDS011;3946;48.958;8.284;2023-02-28T05:35:41;21.70;;;7.63;;
162;SDS011;3946;48.958;8.284;2023-02-28T05:38:26;23.87;;;7.30;;
162;SDS011;3946;48.958;8.284;2023-02-28T05:41:13;26.70;;;8.90;;
162;SDS011;3946;48.958;8.284;2023-02-28T05:43:59;28.70;;;9.50;;
162;SDS011;3946;48.958;8.284;2023-02-28T05:46:44;26.17;;;8.60;;
162;SDS011;3946;48.958;8.284;2023-02-28T05:49:30;23.73;;;8.00;;
162;SDS011;3946;48.958;8.284;2023-02-28T05:52:15;25.13;;;9.00;;
162;SDS011;3946;48.958;8.284;2023-02-28T05:55:00;23.40;;;8.03;;
162;SDS011;3946;48.958;8.284;2023-02-28T05:57:47;27.57;;;9.00;;
162;SDS011;3946;48.958;8.284;2023-02-28T06:00:32;26.73;;;9.20;;
162;SDS011;3946;48.958;8.284;2023-02-28T06:03:20;29.90;;;9.03;;
162;SDS011;3946;48.958;8.284;2023-02-28T06:06:05;24.23;;;8.90;;
162;SDS011;3946;48.958;8.284;2023-02-28T06:08:51;23.83;;;7.90;;
162;SDS011;3946;48.958;8.284;2023-02-28T06:11:36;22.03;;;8.03;;
162;SDS011;3946;48.958;8.284;2023-02-28T06:14:24;25.70;;;8.17;;
162;SDS011;3946;48.958;8.284;2023-02-28T06:17:09;21.20;;;7.70;;
162;SDS011;3946;48.958;8.284;2023-02-28T06:19:55;21.90;;;7.90;;
162;SDS011;3946;48.958;8.284;2023-02-28T06:22:40;21.03;;;7.63;;
162;SDS011;3946;48.958;8.284;2023-02-28T06:25:26;21.07;;;8.33;;
162;SDS011;3946;48.958;8.284;2023-02-28T06:28:12;28.30;;;8.10;;
162;SDS011;3946;48.958;8.284;2023-02-28T06:30:59;22.77;;;8.30;;
162;SDS011;3946;48.958;8.284;2023-02-28T06:33:44;18.70;;;7.40;;
162;SDS011;3946;48.958;8.284;2023-02-28T06:36:30;18.07;;;7.70;;
162;SDS011;3946;48.958;8.284;2023-02-28T06:39:16;21.30;;;7.53;;
162;SDS011;3946;48.958;8.284;2023-02-28T06:42:02;19.83;;;7.60;;
162;SDS011;3946;48.958;8.284;2023-02-28T06:44:47;2.93;;;1.57;;
162;SDS011;3946;48.958;8.284;2023-02-28T06:47:34;22.00;;;8.07;;
162;SDS011;3946;48.958;8.284;2023-02-28T06:50:20;20.30;;;7.70;;
162;SDS011;3946;48.958;8.284;2023-02-28T06:53:05;21.97;;;8.00;;
162;SDS011;3946;48.958;8.284;2023-02-28T06:55:51;30.67;;;9.17;;
162;SDS011;3946;48.958;8.284;2023-02-28T06:58:37;25.50;;;8.30;;
162;SDS011;3946;48.958;8.284;2023-02-28T07:01:22;26.60;;;8.93;;
162;SDS011;3946;48.958;8.284;2023-02-28T07:04:11;25.00;;;9.10;;
162;SDS011;3946;48.958;8.284;2023-02-28T07:06:56;37.63;;;10.87;;
162;SDS011;3946;48.958;8.284;2023-02-28T07:09:41;29.83;;;10.27;;
162;SDS011;3946;48.958;8.284;2023-02-28T07:12:27;25.93;;;9.53;;
162;SDS011;3946;48.958;8.284;2023-02-28T07:15:12;23.37;;;9.10;;
162;SDS011;3946;48.958;8.284;2023-02-28T07:17:57;28.63;;;8.87;;
162;SDS011;3946;48.958;8.284;2023-02-28T07:20:44;25.60;;;9.20;;
162;SDS011;3946;48.958;8.284;2023-02-28T07:23:29;19.03;;;7.40;;
162;SDS011;3946;48.958;8.284;2023-02-28T07:26:15;20.00;;;7.77;;
162;SDS011;3946;48.958;8.284;2023-02-28T07:29:02;25.07;;;8.50;;
162;SDS011;3946;48.958;8.284;2023-02-28T07:31:47;19.93;;;8.37;;
162;SDS011;3946;48.958;8.284;2023-02-28T07:34:34;21.50;;;8.03;;
162;SDS011;3946;48.958;8.284;2023-02-28T07:37:21;18.63;;;7.07;;
162;SDS011;3946;48.958;8.284;2023-02-28T07:40:07;22.27;;;8.30;;
162;SDS011;3946;48.958;8.284;2023-02-28T07:42:56;24.87;;;8.60;;
162;SDS011;3946;48.958;8.284;2023-02-28T07:45:43;23.70;;;8.57;;
162;SDS011;3946;48.958;8.284;2023-02-28T07:48:28;20.90;;;7.97;;
162;SDS011;3946;48.958;8.284;2023-02-28T07:51:14;29.20;;;9.70;;
162;SDS011;3946;48.958;8.284;2023-02-28T07:54:00;23.13;;;8.20;;
162;SDS011;3946;48.958;8.284;2023-02-28T07:56:46;23.77;;;7.97;;
162;SDS011;3946;48.958;8.284;2023-02-28T07:59:31;25.10;;;9.13;;
162;SDS011;3946;48.958;8.284;2023-02-28T08:02:17;22.60;;;8.70;;
162;SDS011;3946;48.958;8.284;2023-02-28T08:05:02;23.83;;;8.37;;
162;SDS011;3946;48.958;8.284;2023-02-28T08:07:48;25.63;;;9.00;;
162;SDS011;3946;48.958;8.284;2023-02-28T08:10:35;26.10;;;8.63;;
162;SDS011;3946;48.958;8.284;2023-02-28T08:13:21;23.50;;;7.97;;
162;SDS011;3946;48.958;8.284;2023-02-28T08:16:07;22.00;;;7.90;;
162;SDS011;3946;48.958;8.284;2023-02-28T08:18:52;22.40;;;8.07;;
162;SDS011;3946;48.958;8.284;2023-02-28T08:21:38;28.03;;;8.40;;
162;SDS011;3946;48.958;8.284;2023-02-28T08:24:23;27.03;;;9.10;;
162;SDS011;3946;48.958;8.284;2023-02-28T08:27:10;23.80;;;8.27;;
162;SDS011;3946;48.958;8.284;2023-02-28T08:29:56;26.90;;;8.80;;
162;SDS011;3946;48.958;8.284;2023-02-28T08:32:41;21.03;;;7.90;;
162;SDS011;3946;48.958;8.284;2023-02-28T08:35:27;22.90;;;8.57;;
162;SDS011;3946;48.958;8.284;2023-02-28T08:38:12;21.40;;;7.83;;
162;SDS011;3946;48.958;8.284;2023-02-28T08:40:57;31.23;;;10.00;;
162;SDS011;3946;48.958;8.284;2023-02-28T08:43:45;22.10;;;9.13;;
162;SDS011;3946;48.958;8.284;2023-02-28T08:46:30;21.07;;;8.33;;
162;SDS011;3946;48.958;8.284;2023-02-28T08:49:16;24.13;;;8.80;;
162;SDS011;3946;48.958;8.284;2023-02-28T08:52:02;23.20;;;8.40;;
162;SDS011;3946;48.958;8.284;2023-02-28T08:54:47;20.97;;;8.50;;
162;SDS011;3946;48.958;8.284;2023-02-28T08:57:33;23.70;;;9.37;;
162;SDS011;3946;48.958;8.284;2023-02-28T09:00:20;24.00;;;8.57;;
162;SDS011;3946;48.958;8.284;2023-02-28T09:03:06;27.27;;;9.23;;
162;SDS011;3946;48.958;8.284;2023-02-28T09:05:52;23.47;;;9.20;;
162;SDS011;3946;48.958;8.284;2023-02-28T09:08:40;25.23;;;8.30;;
162;SDS011;3946;48.958;8.284;2023-02-28T09:11:25;28.43;;;9.87;;
162;SDS011;3946;48.958;8.284;2023-02-28T09:14:10;27.07;;;9.20;;
162;SDS011;3946;48.958;8.284;2023-02-28T09:16:57;26.50;;;8.80;;
162;SDS011;3946;48.958;8.284;2023-02-28T09:19:42;27.67;;;9.60;;
162;SDS011;3946;48.958;8.284;2023-02-28T09:22:28;24.87;;;9.60;;
162;SDS011;3946;48.958;8.284;2023-02-28T09:25:13;21.47;;;8.83;;
162;SDS011;3946;48.958;8.284;2023-02-28T09:27:59;22.37;;;8.97;;
162;SDS011;3946;48.958;8.284;2023-02-28T09:30:45;26.10;;;8.80;;
162;SDS011;3946;48.958;8.284;2023-02-28T09:33:33;28.80;;;9.90;;
162;SDS011;3946;48.958;8.284;2023-02-28T09:36:21;15.17;;;6.37;;
162;SDS011;3946;48.958;8.284;2023-02-28T09:39:07;28.10;;;9.90;;
162;SDS011;3946;48.958;8.284;2023-02-28T09:41:53;26.90;;;9.40;;
162;SDS011;3946;48.958;8.284;2023-02-28T09:44:40;24.63;;;8.27;;
162;SDS011;3946;48.958;8.284;2023-02-28T09:47:30;23.40;;;9.10;;
162;SDS011;3946;48.958;8.284;2023-02-28T09:50:22;27.47;;;10.30;;
162;SDS011;3946;48.958;8.284;2023-02-28T09:53:19;26.43;;;9.83;;
162;SDS011;3946;48.958;8.284;2023-02-28T09:56:07;24.47;;;9.47;;
162;SDS011;3946;48.958;8.284;2023-02-28T09:58:56;18.37;;;6.30;;
162;SDS011;3946;48.958;8.284;2023-02-28T10:01:45;22.30;;;7.50;;
162;SDS011;3946;48.958;8.284;2023-02-28T10:04:41;23.40;;;8.90;;
162;SDS011;3946;48.958;8.284;2023-02-28T10:07:40;28.07;;;9.57;;
162;SDS011;3946;48.958;8.284;2023-02-28T10:10:39;29.00;;;9.77;;
162;SDS011;3946;48.958;8.284;2023-02-28T10:13:27;28.40;;;10.07;;
162;SDS011;3946;48.958;8.284;2023-02-28T10:16:20;28.90;;;9.85;;
162;SDS011;3946;48.958;8.284;2023-02-28T10:19:11;27.10;;;9.87;;
162;SDS011;3946;48.958;8.284;2023-02-28T10:22:02;27.90;;;9.20;;
162;SDS011;3946;48.958;8.284;2023-02-28T10:24:55;32.93;;;10.77;;
162;SDS011;3946;48.958;8.284;2023-02-28T10:27:43;24.80;;;8.90;;
162;SDS011;3946;48.958;8.284;2023-02-28T10:30:29;23.90;;;9.47;;
162;SDS011;3946;48.958;8.284;2023-02-28T10:33:17;27.80;;;9.50;;
162;SDS011;3946;48.958;8.284;2023-02-28T10:36:05;26.33;;;8.77;;
162;SDS011;3946;48.958;8.284;2023-02-28T10:38:51;27.90;;;9.30;;
162;SDS011;3946;48.958;8.284;2023-02-28T10:41:37;34.67;;;9.83;;
162;SDS011;3946;48.958;8.284;2023-02-28T10:44:27;28.03;;;9.93;;
162;SDS011;3946;48.958;8.284;2023-02-28T10:47:15;23.13;;;7.73;;
162;SDS011;3946;48.958;8.284;2023-02-28T10:50:02;30.50;;;9.50;;
162;SDS011;3946;48.958;8.284;2023-02-28T10:52:47;15.47;;;5.20;;
162;SDS011;3946;48.958;8.284;2023-02-28T10:55:32;27.40;;;9.30;;
162;SDS011;3946;48.958;8.284;2023-02-28T10:58:21;22.63;;;8.20;;
162;SDS011;3946;48.958;8.284;2023-02-28T11:01:10;11.77;;;3.90;;
162;SDS011;3946;48.958;8.284;2023-02-28T11:03:59;14.33;;;5.40;;
162;SDS011;3946;48.958;8.284;2023-02-28T11:06:44;23.20;;;7.70;;
162;SDS011;3946;48.958;8.284;2023-02-28T11:09:30;27.57;;;8.83;;
162;SDS011;3946;48.958;8.284;2023-02-28T11:12:20;12.67;;;3.57;;
162;SDS011;3946;48.958;8.284;2023-02-28T11:15:18;8.17;;;3.37;;
162;SDS011;3946;48.958;8.284;2023-02-28T11:18:20;25.23;;;7.87;;
162;SDS011;3946;48.958;8.284;2023-02-28T11:21:10;24.60;;;7.90;;
162;SDS011;3946;48.958;8.284;2023-02-28T11:24:02;28.07;;;8.17;;
162;SDS011;3946;48.958;8.284;2023-02-28T11:26:52;17.40;;;5.60;;
162;SDS011;3946;48.958;8.284;2023-02-28T11:29:39;18.80;;;6.10;;
162;SDS011;3946;48.958;8.284;2023-02-28T11:32:33;4.40;;;1.93;;
162;SDS011;3946;48.958;8.284;2023-02-28T11:35:21;6.30;;;2.50;;
162;SDS011;3946;48.958;8.284;2023-02-28T11:38:11;4.13;;;2.23;;
162;SDS011;3946;48.958;8.284;2023-02-28T11:41:05;2.13;;;1.77;;
162;SDS011;3946;48.958;8.284;2023-02-28T11:44:03;6.40;;;3.80;;
162;SDS011;3946;48.958;8.284;2023-02-28T11:47:00;4.20;;;1.80;;
